Time;durP1;ratioP1;P1;durP2;ratioP2;P2;SDS_P1;SDS_P2;PMS_P1;PMS_P2;Temp;Humidity;BMP_temperature;BMP_pressure;BME280_temperature;BME280_humidity;BME280_pressure;Samples;Min_cycle;Max_cycle;Signal;HPM_P1;HPM_P2
2022/03/01 00:00:26;;;;;;;11.02;3.50;;;9.10;1.00;;;;;;5013814;28;20056;-72
2022/03/01 00:02:52;;;;;;;13.60;4.53;;;9.10;1.00;;;;;;5014748;28;20038;-72
2022/03/01 00:05:18;;;;;;;10.60;4.22;;;8.90;1.00;;;;;;5014546;28;20117;-72
2022/03/01 00:07:43;;;;;;;11.05;4.20;;;8.90;1.00;;;;;;5014200;28;20033;-72
2022/03/01 00:10:10;;;;;;;10.35;3.65;;;9.00;1.00;;;;;;5014804;28;20041;-71
2022/03/01 00:12:36;;;;;;;6.53;3.65;;;8.90;1.00;;;;;;5014507;28;20037;-71
2022/03/01 00:15:03;;;;;;;8.75;3.58;;;9.00;1.00;;;;;;5014305;28;20092;-72
2022/03/01 00:17:29;;;;;;;11.27;3.80;;;9.10;1.00;;;;;;5015999;28;20034;-72
2022/03/01 00:19:55;;;;;;;10.07;3.55;;;9.00;1.00;;;;;;5018233;28;20053;-72
2022/03/01 00:22:21;;;;;;;9.77;3.63;;;9.10;1.00;;;;;;5018058;28;20041;-72
2022/03/01 00:24:46;;;;;;;8.02;3.22;;;8.90;1.00;;;;;;5018528;28;20038;-72
2022/03/01 00:27:12;;;;;;;10.20;3.60;;;8.90;1.00;;;;;;5018212;28;20041;-72
2022/03/01 00:29:38;;;;;;;9.20;4.60;;;8.90;1.00;;;;;;5017748;28;20128;-72
2022/03/01 00:32:05;;;;;;;13.90;3.78;;;8.80;1.00;;;;;;5018165;28;20179;-72
2022/03/01 00:34:30;;;;;;;6.43;3.70;;;9.00;1.00;;;;;;5017969;28;20041;-72
2022/03/01 00:36:56;;;;;;;10.80;3.85;;;9.10;1.00;;;;;;5017889;28;20038;-72
2022/03/01 00:39:22;;;;;;;11.05;3.63;;;9.20;1.00;;;;;;5017943;28;20189;-72
2022/03/01 00:41:48;;;;;;;12.13;3.88;;;9.20;1.00;;;;;;5017685;28;20385;-72
2022/03/01 00:44:14;;;;;;;12.25;3.10;;;9.00;1.00;;;;;;5017776;28;20046;-72
2022/03/01 00:46:40;;;;;;;10.15;3.13;;;9.00;1.00;;;;;;5017867;28;20036;-72
2022/03/01 00:49:06;;;;;;;8.25;3.67;;;9.00;1.00;;;;;;5018378;28;20140;-72
2022/03/01 00:51:32;;;;;;;8.80;3.80;;;9.00;1.00;;;;;;5018311;28;20048;-72
2022/03/01 00:53:57;;;;;;;7.45;3.53;;;8.90;1.00;;;;;;5017733;28;20396;-72
2022/03/01 00:56:23;;;;;;;7.90;3.22;;;9.00;1.00;;;;;;5017370;28;20046;-72
2022/03/01 00:58:49;;;;;;;6.07;3.42;;;9.00;1.00;;;;;;5017524;28;20064;-72
2022/03/01 01:01:16;;;;;;;7.78;3.20;;;8.90;1.00;;;;;;5017633;28;20052;-72
2022/03/01 01:03:41;;;;;;;9.50;3.33;;;9.00;1.00;;;;;;5017864;28;20042;-72
2022/03/01 01:06:07;;;;;;;12.02;3.50;;;8.90;1.00;;;;;;5017508;28;20044;-72
2022/03/01 01:08:33;;;;;;;7.40;3.47;;;9.20;1.00;;;;;;5017764;28;20072;-72
2022/03/01 01:10:59;;;;;;;8.15;3.42;;;9.10;1.00;;;;;;5017599;28;20065;-72
2022/03/01 01:13:25;;;;;;;9.30;3.60;;;8.90;1.00;;;;;;5017660;28;20030;-72
2022/03/01 01:15:51;;;;;;;10.70;3.20;;;8.70;1.00;;;;;;5017196;28;20034;-72
2022/03/01 01:18:17;;;;;;;8.95;3.15;;;8.80;1.00;;;;;;5017557;28;20046;-71
2022/03/01 01:20:43;;;;;;;11.63;3.95;;;8.90;1.00;;;;;;5017175;28;20042;-71
2022/03/01 01:23:09;;;;;;;8.23;3.25;;;8.70;1.00;;;;;;5017561;28;20064;-71
2022/03/01 01:25:35;;;;;;;10.20;3.88;;;8.70;1.00;;;;;;5017083;28;20168;-71
2022/03/01 01:28:01;;;;;;;9.68;3.70;;;8.70;1.00;;;;;;5016945;28;20045;-72
2022/03/01 01:30:31;;;;;;;9.85;4.03;;;8.60;1.00;;;;;;5016470;28;20504;-71
2022/03/01 01:32:57;;;;;;;9.20;3.45;;;8.70;1.00;;;;;;5017086;28;20037;-72
2022/03/01 01:35:26;;;;;;;10.65;3.10;;;8.80;1.00;;;;;;5016977;28;20046;-71
2022/03/01 01:37:53;;;;;;;8.52;3.30;;;8.80;1.00;;;;;;5017106;28;20050;-71
2022/03/01 01:40:22;;;;;;;7.53;3.38;;;8.70;1.00;;;;;;5017126;28;20048;-71
2022/03/01 01:42:48;;;;;;;6.22;2.83;;;8.50;1.00;;;;;;5017009;28;20092;-71
2022/03/01 01:45:14;;;;;;;6.72;2.97;;;8.70;1.00;;;;;;5016617;28;20214;-71
2022/03/01 01:47:41;;;;;;;10.48;3.40;;;8.50;1.00;;;;;;5016425;28;20397;-71
2022/03/01 01:50:08;;;;;;;11.30;3.75;;;8.50;1.00;;;;;;5016745;28;20045;-71
2022/03/01 01:52:34;;;;;;;9.10;3.47;;;8.30;1.00;;;;;;5016737;28;20084;-71
2022/03/01 01:55:00;;;;;;;7.15;2.90;;;8.20;1.00;;;;;;5016623;28;20561;-71
2022/03/01 01:57:26;;;;;;;8.02;3.63;;;8.20;1.00;;;;;;5016247;28;20034;-71
2022/03/01 01:59:55;;;;;;;13.07;3.63;;;8.30;1.00;;;;;;5016369;28;20049;-71
2022/03/01 02:02:22;;;;;;;10.95;3.40;;;8.40;1.00;;;;;;5016159;28;20045;-71
2022/03/01 02:04:48;;;;;;;6.82;3.10;;;8.40;1.00;;;;;;5016397;28;20034;-71
2022/03/01 02:07:15;;;;;;;6.47;3.15;;;8.30;1.00;;;;;;5016088;28;20095;-71
2022/03/01 02:09:41;;;;;;;6.72;2.83;;;8.40;1.00;;;;;;5016576;28;20505;-71
2022/03/01 02:12:07;;;;;;;8.02;2.88;;;8.30;1.00;;;;;;5016254;28;20041;-72
2022/03/01 02:14:37;;;;;;;6.90;3.03;;;8.20;1.00;;;;;;5016494;28;20042;-72
2022/03/01 02:17:06;;;;;;;7.10;3.08;;;8.20;1.00;;;;;;5015872;28;20037;-71
2022/03/01 02:19:32;;;;;;;9.20;3.17;;;8.40;1.00;;;;;;5016122;28;20046;-71
2022/03/01 02:21:58;;;;;;;6.07;2.65;;;8.40;1.00;;;;;;5016104;28;20034;-71
2022/03/01 02:24:28;;;;;;;8.48;3.13;;;8.40;1.00;;;;;;5015784;28;20069;-71
2022/03/01 02:26:55;;;;;;;6.70;2.97;;;8.30;1.00;;;;;;5015965;28;20064;-71
2022/03/01 02:29:22;;;;;;;5.50;2.90;;;8.30;1.00;;;;;;5016017;28;20496;-72
2022/03/01 02:31:48;;;;;;;10.55;3.40;;;8.60;1.00;;;;;;5015619;28;20042;-71
2022/03/01 02:34:14;;;;;;;7.30;2.67;;;8.50;1.00;;;;;;5015856;28;20048;-72
2022/03/01 02:36:40;;;;;;;8.27;2.95;;;8.50;1.00;;;;;;5015550;28;20038;-72
2022/03/01 02:39:06;;;;;;;10.85;3.10;;;8.60;1.00;;;;;;5015443;28;20145;-71
2022/03/01 02:41:36;;;;;;;6.40;2.45;;;8.70;1.00;;;;;;5016006;28;20508;-71
2022/03/01 02:44:02;;;;;;;10.63;3.28;;;8.50;1.00;;;;;;5015271;28;20045;-72
2022/03/01 02:46:28;;;;;;;7.97;2.92;;;8.50;1.00;;;;;;5015299;28;20076;-72
2022/03/01 02:48:53;;;;;;;6.80;2.67;;;8.20;1.00;;;;;;5016159;28;20050;-72
2022/03/01 02:51:19;;;;;;;7.97;2.90;;;8.30;1.00;;;;;;5016165;28;20041;-71
2022/03/01 02:53:45;;;;;;;8.35;2.72;;;8.20;1.00;;;;;;5015712;28;20038;-72
2022/03/01 02:56:11;;;;;;;7.35;3.55;;;8.40;1.00;;;;;;5015241;28;20030;-72
2022/03/01 02:58:37;;;;;;;10.15;3.88;;;8.60;1.00;;;;;;5015397;28;20050;-72
2022/03/01 03:01:03;;;;;;;6.43;2.78;;;8.50;1.00;;;;;;5015122;28;20053;-72
2022/03/01 03:03:29;;;;;;;7.50;2.88;;;8.40;1.00;;;;;;5015342;28;20040;-71
2022/03/01 03:05:54;;;;;;;6.78;3.00;;;8.50;1.00;;;;;;5015320;28;20042;-72
2022/03/01 03:08:20;;;;;;;10.73;3.20;;;8.40;1.00;;;;;;5015291;28;20125;-72
2022/03/01 03:10:46;;;;;;;6.40;3.10;;;8.20;1.00;;;;;;5015292;28;20042;-71
2022/03/01 03:13:12;;;;;;;5.22;3.10;;;8.20;1.00;;;;;;4997622;28;20511;-72
2022/03/01 03:15:38;;;;;;;10.93;3.20;;;8.40;1.00;;;;;;5015791;28;20041;-71
2022/03/01 03:18:04;;;;;;;7.80;3.25;;;8.40;1.00;;;;;;5015048;28;20516;-71
2022/03/01 03:20:30;;;;;;;7.32;3.35;;;8.20;1.00;;;;;;5015123;28;20100;-71
2022/03/01 03:22:56;;;;;;;8.27;3.42;;;8.10;1.00;;;;;;5009550;28;20492;-72
2022/03/01 03:25:22;;;;;;;8.43;3.47;;;8.10;1.00;;;;;;5013820;28;20496;-72
2022/03/01 03:27:48;;;;;;;6.55;3.60;;;8.30;1.00;;;;;;5014790;28;20042;-72
2022/03/01 03:30:14;;;;;;;8.52;2.92;;;8.10;1.00;;;;;;5014735;28;20123;-72
2022/03/01 03:32:39;;;;;;;7.43;2.97;;;8.10;1.00;;;;;;5015191;28;20185;-72
2022/03/01 03:35:06;;;;;;;13.40;3.38;;;7.90;1.00;;;;;;5014879;28;20069;-72
2022/03/01 03:37:32;;;;;;;6.82;3.15;;;7.70;1.00;;;;;;5014474;28;20115;-71
2022/03/01 03:39:58;;;;;;;9.55;4.03;;;7.80;1.00;;;;;;5014858;28;20143;-71
2022/03/01 03:42:24;;;;;;;5.85;2.67;;;7.70;1.00;;;;;;5015061;28;20069;-71
2022/03/01 03:44:50;;;;;;;7.60;3.45;;;7.70;1.00;;;;;;5014494;28;20037;-71
2022/03/01 03:47:16;;;;;;;8.43;3.30;;;7.60;1.00;;;;;;5014736;28;20096;-71
2022/03/01 03:49:42;;;;;;;5.60;2.90;;;7.40;1.00;;;;;;5015331;28;20397;-71
2022/03/01 03:52:09;;;;;;;8.10;3.25;;;7.30;1.00;;;;;;5013909;28;20034;-71
2022/03/01 03:54:35;;;;;;;8.40;3.40;;;7.20;1.00;;;;;;5014704;28;20045;-71
2022/03/01 03:57:07;;;;;;;6.57;2.60;;;7.30;1.00;;;;;;5014362;28;20076;-71
2022/03/01 03:59:34;;;;;;;6.68;2.92;;;7.20;1.00;;;;;;5014410;28;20057;-71
2022/03/01 04:02:01;;;;;;;9.40;3.10;;;7.10;1.00;;;;;;5014781;28;20407;-71
2022/03/01 04:04:27;;;;;;;11.05;3.25;;;7.00;1.00;;;;;;5015191;28;20046;-72
2022/03/01 04:06:53;;;;;;;7.60;2.70;;;7.00;1.00;;;;;;5014576;28;20117;-72
2022/03/01 04:09:18;;;;;;;8.68;3.28;;;6.70;1.00;;;;;;5015103;28;20041;-72
2022/03/01 04:11:44;;;;;;;6.63;3.10;;;6.70;1.00;;;;;;5014769;28;20126;-72
2022/03/01 04:14:10;;;;;;;5.72;2.58;;;6.60;1.00;;;;;;5014621;28;20042;-71
2022/03/01 04:16:36;;;;;;;6.32;2.67;;;6.70;1.00;;;;;;5015213;28;20385;-71
2022/03/01 04:19:02;;;;;;;10.38;4.60;;;7.00;1.00;;;;;;5014982;28;20049;-72
2022/03/01 04:21:28;;;;;;;8.50;3.53;;;7.00;1.00;;;;;;5014763;28;20034;-71
2022/03/01 04:23:54;;;;;;;9.10;3.92;;;6.90;1.00;;;;;;5014965;28;20038;-71
2022/03/01 04:26:20;;;;;;;8.25;2.88;;;6.80;1.00;;;;;;5015210;28;20042;-71
2022/03/01 04:28:45;;;;;;;7.78;3.10;;;6.80;1.00;;;;;;5014971;28;20044;-72
2022/03/01 04:31:11;;;;;;;10.60;4.03;;;6.80;1.00;;;;;;5014594;28;20041;-71
2022/03/01 04:33:37;;;;;;;8.00;3.65;;;6.70;1.00;;;;;;4997090;28;20042;-72
2022/03/01 04:36:03;;;;;;;9.13;3.53;;;6.70;1.00;;;;;;5014867;28;20044;-72
2022/03/01 04:38:30;;;;;;;9.85;4.15;;;6.50;1.00;;;;;;5014513;28;20045;-72
2022/03/01 04:40:56;;;;;;;10.27;4.22;;;6.40;1.00;;;;;;5014549;28;20547;-72
2022/03/01 04:43:22;;;;;;;8.18;3.42;;;6.40;1.00;;;;;;5014469;28;20037;-72
2022/03/01 04:45:49;;;;;;;7.00;3.42;;;6.50;1.00;;;;;;5014370;28;20088;-72
2022/03/01 04:48:14;;;;;;;8.30;3.38;;;6.50;1.00;;;;;;5014896;28;20046;-72
2022/03/01 04:50:40;;;;;;;9.93;3.85;;;6.40;1.00;;;;;;5014805;28;20099;-71
2022/03/01 04:53:06;;;;;;;11.10;3.67;;;6.40;1.00;;;;;;5014461;28;20037;-72
2022/03/01 04:55:33;;;;;;;10.48;4.38;;;6.30;1.00;;;;;;5014442;28;20045;-72
2022/03/01 04:57:58;;;;;;;7.93;3.70;;;6.30;1.00;;;;;;5014021;28;20042;-71
2022/03/01 05:00:25;;;;;;;11.25;4.10;;;6.30;1.00;;;;;;5014128;28;20084;-72
2022/03/01 05:02:51;;;;;;;9.93;5.38;;;6.20;1.00;;;;;;5014055;28;20045;-72
2022/03/01 05:05:17;;;;;;;16.45;5.40;;;6.20;1.00;;;;;;5016668;28;20045;-71
2022/03/01 05:07:49;;;;;;;13.30;4.15;;;6.30;1.00;;;;;;5017603;28;20420;-71
2022/03/01 05:10:19;;;;;;;10.10;3.80;;;6.30;1.00;;;;;;5018261;28;20069;-72
2022/03/01 05:12:48;;;;;;;18.20;5.87;;;6.30;1.00;;;;;;5017576;28;20120;-71
2022/03/01 05:15:14;;;;;;;11.40;4.28;;;6.30;1.00;;;;;;5017170;28;20261;-71
2022/03/01 05:17:40;;;;;;;14.85;5.45;;;6.20;1.00;;;;;;5017568;28;20046;-71
2022/03/01 05:20:07;;;;;;;12.35;4.07;;;6.20;1.00;;;;;;5017498;28;20042;-71
2022/03/01 05:22:34;;;;;;;11.30;4.30;;;6.00;1.00;;;;;;5017226;28;20038;-71
2022/03/01 05:25:01;;;;;;;8.77;4.47;;;6.00;1.00;;;;;;5017053;28;20045;-71
2022/03/01 05:27:29;;;;;;;11.35;5.03;;;5.90;1.00;;;;;;5017149;28;20034;-71
2022/03/01 05:29:55;;;;;;;12.93;5.63;;;5.80;1.00;;;;;;5017408;28;20500;-71
2022/03/01 05:32:21;;;;;;;11.93;4.60;;;5.70;1.00;;;;;;5017075;28;20496;-71
2022/03/01 05:34:47;;;;;;;14.02;5.55;;;5.60;1.00;;;;;;5016728;28;20041;-71
2022/03/01 05:37:13;;;;;;;14.00;5.35;;;5.50;1.00;;;;;;5017070;28;20041;-71
2022/03/01 05:39:39;;;;;;;14.45;5.85;;;5.60;1.00;;;;;;5016803;28;20054;-71
2022/03/01 05:42:05;;;;;;;12.70;6.53;;;5.60;1.00;;;;;;5016748;28;20038;-71
2022/03/01 05:44:31;;;;;;;25.77;14.10;;;5.50;1.00;;;;;;5017117;28;20049;-71
2022/03/01 05:46:57;;;;;;;19.35;11.55;;;5.50;1.00;;;;;;5017034;28;20037;-71
2022/03/01 05:49:23;;;;;;;21.85;10.93;;;5.40;1.00;;;;;;5016476;28;20519;-71
2022/03/01 05:51:48;;;;;;;12.63;5.75;;;5.20;1.00;;;;;;5016419;28;20068;-71
2022/03/01 05:54:14;;;;;;;14.93;6.45;;;5.40;1.00;;;;;;4999274;28;20038;-72
2022/03/01 05:56:40;;;;;;;14.68;6.30;;;5.50;1.00;;;;;;5016608;28;20041;-72
2022/03/01 05:59:06;;;;;;;11.57;5.53;;;5.50;1.00;;;;;;5016565;28;20137;-72
2022/03/01 06:01:32;;;;;;;20.42;5.95;;;5.50;1.00;;;;;;5016223;28;20145;-71
2022/03/01 06:03:58;;;;;;;26.20;8.77;;;5.70;1.00;;;;;;5016978;28;20513;-70
2022/03/01 06:06:24;;;;;;;16.17;5.88;;;5.70;1.00;;;;;;5016885;28;20045;-71
2022/03/01 06:08:50;;;;;;;13.80;4.85;;;5.70;1.00;;;;;;5016385;28;20045;-71
2022/03/01 06:11:15;;;;;;;17.65;5.75;;;5.70;1.00;;;;;;5016893;28;20615;-71
2022/03/01 06:13:43;;;;;;;16.55;6.35;;;5.70;1.00;;;;;;5016275;28;20038;-71
2022/03/01 06:16:09;;;;;;;13.93;6.35;;;5.60;1.00;;;;;;5015828;28;20117;-71
2022/03/01 06:18:35;;;;;;;12.25;5.40;;;5.30;1.00;;;;;;5032045;28;20041;-71
2022/03/01 06:21:01;;;;;;;16.50;7.35;;;5.00;1.00;;;;;;5035859;28;20049;-71
2022/03/01 06:23:28;;;;;;;20.00;9.00;;;4.90;1.00;;;;;;5034977;28;20034;-71
2022/03/01 06:25:54;;;;;;;21.05;8.43;;;4.80;1.00;;;;;;5035172;28;20566;-71
2022/03/01 06:28:20;;;;;;;16.55;6.95;;;4.70;1.00;;;;;;5034816;28;20160;-71
2022/03/01 06:30:46;;;;;;;18.40;5.97;;;4.70;1.00;;;;;;5034727;28;20037;-71
2022/03/01 06:33:12;;;;;;;12.43;5.55;;;4.60;1.00;;;;;;5034725;28;20033;-71
2022/03/01 06:35:38;;;;;;;13.73;6.85;;;4.70;1.00;;;;;;5034585;28;20065;-71
2022/03/01 06:38:03;;;;;;;11.55;6.13;;;4.70;1.00;;;;;;5034747;28;20049;-71
2022/03/01 06:40:29;;;;;;;12.23;5.15;;;4.70;1.00;;;;;;5035007;28;20041;-71
2022/03/01 06:42:56;;;;;;;15.10;6.25;;;4.60;1.00;;;;;;5034774;28;20079;-71
2022/03/01 06:45:22;;;;;;;14.35;5.80;;;4.60;1.00;;;;;;5034430;28;20128;-71
2022/03/01 06:47:48;;;;;;;12.30;5.63;;;4.60;1.00;;;;;;5035393;28;20038;-71
2022/03/01 06:50:14;;;;;;;10.27;4.88;;;4.50;1.00;;;;;;5035669;28;20051;-71
2022/03/01 06:52:40;;;;;;;11.43;5.18;;;4.60;1.00;;;;;;5035350;28;20116;-71
2022/03/01 06:55:08;;;;;;;11.63;4.80;;;4.50;1.00;;;;;;5034919;28;20053;-69
2022/03/01 06:57:37;;;;;;;11.93;4.55;;;4.50;1.00;;;;;;5035053;28;20087;-70
2022/03/01 07:00:03;;;;;;;12.55;4.55;;;4.40;1.00;;;;;;5034206;28;20152;-70
2022/03/01 07:02:29;;;;;;;11.32;4.43;;;4.40;1.00;;;;;;5035127;28;20120;-70
2022/03/01 07:04:56;;;;;;;16.85;5.30;;;4.40;1.00;;;;;;5035145;28;20045;-70
2022/03/01 07:07:23;;;;;;;44.60;14.45;;;4.40;1.00;;;;;;5035599;28;20079;-70
2022/03/01 07:09:49;;;;;;;26.27;10.88;;;4.50;1.00;;;;;;5035867;28;20041;-70
2022/03/01 07:12:15;;;;;;;23.45;8.70;;;4.60;1.00;;;;;;5035116;28;20167;-70
2022/03/01 07:14:41;;;;;;;17.30;7.68;;;4.70;1.00;;;;;;5017753;28;20076;-70
2022/03/01 07:17:06;;;;;;;15.35;7.03;;;4.70;1.00;;;;;;5034916;28;20037;-70
2022/03/01 07:19:32;;;;;;;14.23;5.70;;;4.80;1.00;;;;;;5035038;28;20514;-70
2022/03/01 07:21:58;;;;;;;13.32;6.10;;;4.80;1.00;;;;;;5034841;28;20496;-70
2022/03/01 07:24:24;;;;;;;17.80;6.50;;;4.80;1.00;;;;;;5034814;28;20396;-70
2022/03/01 07:26:50;;;;;;;14.07;6.65;;;4.90;1.00;;;;;;5034390;28;20037;-70
2022/03/01 07:29:17;;;;;;;8.70;4.40;;;4.90;1.00;;;;;;5033774;28;20037;-70
2022/03/01 07:31:42;;;;;;;12.52;5.13;;;4.90;1.00;;;;;;5026423;28;20100;-70
2022/03/01 07:34:08;;;;;;;14.63;5.20;;;4.90;1.00;;;;;;5015201;28;20046;-70
2022/03/01 07:36:34;;;;;;;11.20;4.97;;;5.00;1.00;;;;;;5014631;28;20564;-70
2022/03/01 07:39:00;;;;;;;15.68;6.65;;;5.10;1.00;;;;;;5024911;28;20046;-69
2022/03/01 07:41:26;;;;;;;16.60;6.78;;;5.10;1.00;;;;;;5037737;28;20091;-70
2022/03/01 07:43:52;;;;;;;16.20;6.82;;;5.20;1.00;;;;;;5032476;28;20045;-70
2022/03/01 07:46:18;;;;;;;16.88;7.47;;;5.30;1.00;;;;;;5021920;28;20038;-71
2022/03/01 07:48:44;;;;;;;15.93;7.03;;;5.40;1.00;;;;;;5034379;28;20099;-70
2022/03/01 07:51:10;;;;;;;16.13;6.25;;;5.40;1.00;;;;;;5028175;28;20041;-71
2022/03/01 07:53:36;;;;;;;12.00;5.28;;;5.40;1.00;;;;;;5014980;28;20041;-71
2022/03/01 07:56:02;;;;;;;8.40;4.05;;;5.40;1.00;;;;;;5014969;28;20168;-71
2022/03/01 07:58:28;;;;;;;7.85;3.92;;;5.50;1.00;;;;;;5014863;28;20473;-71
2022/03/01 08:00:54;;;;;;;21.25;9.88;;;5.60;1.00;;;;;;5014546;28;20056;-71
2022/03/01 08:03:20;;;;;;;11.85;5.28;;;5.60;1.00;;;;;;5020313;28;20037;-71
2022/03/01 08:05:46;;;;;;;8.32;4.70;;;5.70;1.00;;;;;;5034295;28;20053;-71
2022/03/01 08:08:13;;;;;;;10.60;6.60;;;5.80;1.00;;;;;;5034278;28;20049;-71
2022/03/01 08:10:40;;;;;;;13.48;5.32;;;5.90;1.00;;;;;;5034763;28;20068;-71
2022/03/01 08:13:06;;;;;;;25.52;16.70;;;6.00;1.00;;;;;;5034291;28;20033;-71
2022/03/01 08:15:32;;;;;;;13.85;7.85;;;6.10;1.00;;;;;;5034094;28;20091;-71
2022/03/01 08:17:59;;;;;;;13.80;5.10;;;6.10;1.00;;;;;;5034152;28;20120;-71
2022/03/01 08:20:26;;;;;;;9.00;4.75;;;6.10;1.00;;;;;;5033906;28;20046;-70
2022/03/01 08:22:52;;;;;;;15.07;5.18;;;6.10;1.00;;;;;;5030014;28;20108;-71
2022/03/01 08:25:19;;;;;;;9.73;5.28;;;6.20;1.00;;;;;;5014097;28;20125;-71
2022/03/01 08:27:46;;;;;;;8.70;5.60;;;6.30;1.00;;;;;;5014397;28;20113;-71
2022/03/01 08:30:13;;;;;;;11.75;4.65;;;6.30;1.00;;;;;;5030470;28;20073;-70
2022/03/01 08:32:39;;;;;;;6.18;3.47;;;6.40;1.00;;;;;;5034035;28;20045;-71
2022/03/01 08:35:05;;;;;;;8.32;3.47;;;6.60;1.00;;;;;;5034206;28;20106;-71
2022/03/01 08:37:31;;;;;;;7.35;3.20;;;6.60;1.00;;;;;;5034148;28;20045;-70
2022/03/01 08:39:57;;;;;;;8.48;3.15;;;6.80;1.00;;;;;;5035517;28;20041;-71
2022/03/01 08:42:22;;;;;;;8.95;2.53;;;6.90;1.00;;;;;;5034437;28;20045;-71
2022/03/01 08:44:49;;;;;;;10.27;3.17;;;7.10;1.00;;;;;;5028140;28;20033;-71
2022/03/01 08:47:15;;;;;;;9.18;2.80;;;7.30;1.00;;;;;;5017508;28;20034;-70
2022/03/01 08:49:40;;;;;;;8.90;2.85;;;7.50;1.00;;;;;;5017802;28;20076;-71
2022/03/01 08:52:06;;;;;;;8.55;3.10;;;7.50;1.00;;;;;;5017448;28;20034;-71
2022/03/01 08:54:32;;;;;;;11.02;3.17;;;7.50;1.00;;;;;;5030821;28;20044;-71
2022/03/01 08:56:58;;;;;;;7.75;3.28;;;7.60;1.00;;;;;;5037212;28;20037;-71
2022/03/01 08:59:25;;;;;;;8.45;3.30;;;7.70;1.00;;;;;;5028776;28;20068;-70
2022/03/01 09:01:51;;;;;;;30.90;12.20;;;7.80;1.00;;;;;;5029070;28;20049;-71
2022/03/01 09:04:16;;;;;;;10.07;4.40;;;7.90;1.00;;;;;;5030347;28;20392;-70
2022/03/01 09:06:42;;;;;;;9.30;3.67;;;8.10;1.00;;;;;;5032469;28;20041;-71
2022/03/01 09:09:08;;;;;;;6.32;3.35;;;8.30;1.00;;;;;;5033077;28;20037;-71
2022/03/01 09:11:34;;;;;;;5.70;2.80;;;8.40;1.00;;;;;;5030227;28;20064;-71
2022/03/01 09:14:00;;;;;;;7.88;2.67;;;8.50;1.00;;;;;;5036802;28;20516;-71
2022/03/01 09:16:26;;;;;;;8.25;3.40;;;8.60;1.00;;;;;;5036669;28;20179;-71
2022/03/01 09:18:52;;;;;;;9.43;3.47;;;8.70;1.00;;;;;;5037009;28;20050;-71
2022/03/01 09:21:18;;;;;;;8.00;3.03;;;8.80;1.00;;;;;;5020710;28;20037;-70
2022/03/01 09:23:44;;;;;;;8.82;2.90;;;8.90;1.00;;;;;;5026326;28;20044;-70
2022/03/01 09:26:10;;;;;;;10.32;3.08;;;8.90;1.00;;;;;;5036994;28;20041;-70
2022/03/01 09:28:37;;;;;;;8.68;2.95;;;8.90;1.00;;;;;;5023531;28;20044;-71
2022/03/01 09:31:04;;;;;;;10.55;2.92;;;8.90;1.00;;;;;;5031089;28;20045;-70
2022/03/01 09:33:30;;;;;;;5.43;2.38;;;9.10;1.00;;;;;;5018484;28;20084;-70
2022/03/01 09:35:56;;;;;;;9.10;2.92;;;9.30;1.00;;;;;;5017373;28;20052;-71
2022/03/01 09:38:24;;;;;;;8.35;2.50;;;9.50;1.00;;;;;;5017734;28;20133;-70
2022/03/01 09:40:50;;;;;;;7.90;2.63;;;9.60;1.00;;;;;;5028657;28;20049;-70
2022/03/01 09:43:17;;;;;;;7.03;2.58;;;9.70;1.00;;;;;;5030778;28;20037;-71
2022/03/01 09:45:43;;;;;;;5.72;2.30;;;9.90;1.00;;;;;;5036252;28;20095;-71
2022/03/01 09:48:10;;;;;;;4.93;2.25;;;10.00;1.00;;;;;;5035402;28;20485;-71
2022/03/01 09:50:36;;;;;;;5.72;2.20;;;10.00;1.00;;;;;;5019497;28;20096;-72
2022/03/01 09:53:03;;;;;;;8.95;2.25;;;10.00;1.00;;;;;;5035709;28;20050;-71
2022/03/01 09:55:30;;;;;;;3.22;1.80;;;10.20;1.00;;;;;;5021511;28;20070;-72
2022/03/01 09:57:56;;;;;;;9.07;2.80;;;10.20;1.00;;;;;;5035577;28;20038;-73
2022/03/01 10:00:23;;;;;;;7.22;2.50;;;10.20;1.00;;;;;;5036074;28;20144;-73
2022/03/01 10:02:55;;;;;;;7.75;2.60;;;10.30;1.00;;;;;;5003082;28;20047;-73
2022/03/01 10:05:43;;;;;;;6.72;2.35;;;10.40;1.00;;;;;;4998439;28;20037;-73
2022/03/01 10:08:12;;;;;;;6.57;2.20;;;10.60;1.00;;;;;;5015939;28;20034;-72
2022/03/01 10:10:40;;;;;;;8.57;2.78;;;10.60;1.00;;;;;;5015581;28;20038;-73
2022/03/01 10:13:06;;;;;;;12.48;3.20;;;10.70;1.00;;;;;;5016197;28;20033;-73
2022/03/01 10:15:32;;;;;;;9.57;3.58;;;10.70;1.00;;;;;;5034970;28;20041;-73
2022/03/01 10:18:09;;;;;;;9.23;2.80;;;10.70;1.00;;;;;;5028605;28;20041;-73
2022/03/01 10:20:35;;;;;;;7.57;2.70;;;10.70;1.00;;;;;;5005335;28;20038;-73
2022/03/01 10:23:01;;;;;;;11.75;2.95;;;10.80;1.00;;;;;;5015804;28;20129;-73
2022/03/01 10:25:27;;;;;;;6.95;3.13;;;10.80;1.00;;;;;;5034571;28;20072;-73
2022/03/01 10:27:54;;;;;;;8.38;2.53;;;10.80;1.00;;;;;;5035779;28;20565;-73
2022/03/01 10:30:25;;;;;;;9.55;2.75;;;10.90;1.00;;;;;;5035200;28;20492;-72
2022/03/01 10:33:02;;;;;;;10.82;3.25;;;11.20;1.00;;;;;;5021316;28;20111;-74
2022/03/01 10:35:27;;;;;;;5.88;2.72;;;11.40;1.00;;;;;;5017544;28;20042;-73
2022/03/01 10:37:53;;;;;;;9.13;2.75;;;11.70;1.00;;;;;;5035175;28;20039;-73
2022/03/01 10:40:22;;;;;;;10.13;2.70;;;11.90;1.00;;;;;;5015823;28;20044;-72
2022/03/01 10:43:03;;;;;;;11.63;3.47;;;12.00;1.00;;;;;;5015739;28;20037;-72
2022/03/01 10:45:39;;;;;;;10.98;3.53;;;12.00;1.00;;;;;;5031929;28;20045;-73
2022/03/01 10:48:07;;;;;;;11.10;2.42;;;11.90;1.00;;;;;;5024392;28;20041;-73
2022/03/01 10:50:34;;;;;;;6.32;3.08;;;11.90;1.00;;;;;;5006995;28;20087;-72
2022/03/01 10:53:00;;;;;;;10.95;3.38;;;12.30;1.00;;;;;;5030642;28;20037;-72
2022/03/01 10:55:29;;;;;;;9.40;3.17;;;12.80;1.00;;;;;;5018376;28;20055;-72
2022/03/01 10:58:07;;;;;;;8.18;3.30;;;12.70;1.00;;;;;;5019072;28;20029;-73
2022/03/01 11:00:35;;;;;;;19.48;9.48;;;12.60;1.00;;;;;;5033341;28;20103;-74
2022/03/01 11:03:06;;;;;;;14.40;6.38;;;12.40;1.00;;;;;;5033881;28;20570;-73
2022/03/01 11:05:33;;;;;;;11.50;4.18;;;12.00;1.00;;;;;;5034557;28;20381;-73
2022/03/01 11:08:08;;;;;;;7.97;3.35;;;11.80;1.00;;;;;;5034932;28;20041;-74
2022/03/01 11:10:37;;;;;;;13.48;6.30;;;12.00;1.00;;;;;;5034566;28;20049;-74
2022/03/01 11:13:05;;;;;;;8.77;2.67;;;12.20;1.00;;;;;;5034241;28;20128;-73
2022/03/01 11:15:53;;;;;;;24.80;10.50;;;12.60;1.00;;;;;;5012822;28;20500;-74
2022/03/01 11:18:40;;;;;;;15.35;3.97;;;12.80;1.00;;;;;;5034641;28;20046;-73
2022/03/01 11:21:11;;;;;;;14.50;3.40;;;12.60;1.00;;;;;;5034300;28;20033;-74
2022/03/01 11:23:37;;;;;;;9.90;3.22;;;12.40;1.00;;;;;;5034849;28;20042;-71
2022/03/01 11:26:16;;;;;;;10.65;3.72;;;12.40;1.00;;;;;;5008347;28;20208;-74
2022/03/01 11:28:53;;;;;;;16.85;4.47;;;12.10;1.00;;;;;;5032008;28;20045;-74
2022/03/01 11:31:25;;;;;;;12.38;4.95;;;11.90;1.00;;;;;;5033587;28;20120;-74
2022/03/01 11:34:07;;;;;;;13.82;5.22;;;11.70;1.00;;;;;;5032268;28;20524;-74
2022/03/01 11:36:34;;;;;;;20.80;6.50;;;11.50;1.00;;;;;;5031950;28;20072;-74
2022/03/01 11:39:15;;;;;;;17.75;5.63;;;11.60;1.00;;;;;;5031528;28;20046;-75
2022/03/01 11:41:44;;;;;;;12.75;5.70;;;11.70;1.00;;;;;;5028951;28;20042;-75
2022/03/01 11:44:12;;;;;;;24.35;12.63;;;11.60;1.00;;;;;;4995417;28;20152;-75
2022/03/01 11:46:43;;;;;;;13.43;4.93;;;11.80;1.00;;;;;;5030268;28;20048;-74
2022/03/01 11:49:15;;;;;;;17.25;5.35;;;11.90;1.00;;;;;;5029331;28;20042;-75
2022/03/01 11:51:48;;;;;;;19.30;5.68;;;12.10;1.00;;;;;;5032092;28;20043;-73
2022/03/01 11:54:22;;;;;;;20.77;6.68;;;11.90;1.00;;;;;;5029979;28;20507;-73
2022/03/01 11:56:51;;;;;;;18.88;6.35;;;12.20;1.00;;;;;;5032234;28;20045;-73
2022/03/01 11:59:18;;;;;;;22.60;6.13;;;11.90;1.00;;;;;;5031123;28;20045;-73
2022/03/01 12:01:45;;;;;;;20.45;5.95;;;11.60;1.00;;;;;;5037046;28;20084;-74
2022/03/01 12:04:10;;;;;;;16.95;5.60;;;11.20;1.00;;;;;;5023864;28;20567;-74
2022/03/01 12:06:39;;;;;;;23.60;6.28;;;11.00;1.00;;;;;;5038363;28;20076;-73
2022/03/01 12:09:07;;;;;;;17.52;5.47;;;11.10;1.00;;;;;;5037898;28;20038;-73
2022/03/01 12:12:04;;;;;;;20.55;6.68;;;11.30;1.00;;;;;;5014555;28;20099;-73
2022/03/01 12:14:34;;;;;;;21.30;6.68;;;11.10;1.00;;;;;;5011899;28;20040;-74
2022/03/01 12:17:01;;;;;;;17.67;6.63;;;10.80;1.00;;;;;;5031638;28;20045;-74
2022/03/01 12:19:31;;;;;;;20.17;6.53;;;10.70;1.00;;;;;;5018138;28;20061;-74
2022/03/01 12:21:58;;;;;;;24.60;6.60;;;10.60;1.00;;;;;;5025949;28;20033;-74
2022/03/01 12:24:29;;;;;;;22.00;6.88;;;10.50;1.00;;;;;;5036818;28;20068;-74
2022/03/01 12:27:03;;;;;;;18.75;6.20;;;10.40;1.00;;;;;;5037157;28;20045;-73
2022/03/01 12:29:36;;;;;;;20.67;5.82;;;10.30;1.00;;;;;;5035840;28;20030;-74
2022/03/01 12:32:08;;;;;;;30.40;6.57;;;10.30;1.00;;;;;;5032454;28;20116;-74
2022/03/01 12:34:36;;;;;;;18.05;6.38;;;10.30;1.00;;;;;;5037909;28;20167;-74
2022/03/01 12:37:14;;;;;;;23.30;6.50;;;10.40;1.00;;;;;;5037900;28;20070;-73
2022/03/01 12:39:40;;;;;;;26.30;8.07;;;10.50;1.00;;;;;;5033661;28;20095;-73
2022/03/01 12:42:08;;;;;;;35.45;10.43;;;10.50;1.00;;;;;;5028236;28;20521;-74
2022/03/01 12:44:34;;;;;;;27.15;11.13;;;10.60;1.00;;;;;;5019044;28;20026;-74
2022/03/01 12:47:03;;;;;;;24.42;7.47;;;10.60;1.00;;;;;;5036661;28;20049;-74
2022/03/01 12:49:33;;;;;;;26.45;8.43;;;10.60;1.00;;;;;;5037649;28;20045;-73
2022/03/01 12:51:59;;;;;;;26.60;8.07;;;10.60;1.00;;;;;;5030098;28;20136;-75
2022/03/01 12:54:28;;;;;;;22.92;8.02;;;10.30;1.00;;;;;;5019752;28;20367;-75
2022/03/01 12:56:58;;;;;;;36.40;16.40;;;10.10;1.00;;;;;;5032702;28;20067;-75